Time;durP1;ratioP1;P1;durP2;ratioP2;P2;SDS_P1;SDS_P2;PMS_P1;PMS_P2;Temp;Humidity;BMP_temperature;BMP_pressure;BME280_temperature;BME280_humidity;BME280_pressure;Samples;Min_cycle;Max_cycle;Signal;HPM_P1;HPM_P2
2023/08/25 00:00:09;;;;;;;5.40;4.70;;;;;;;30.49;40.22;100624.46;102784;1291;61473;-82
2023/08/25 00:02:34;;;;;;;5.40;4.50;;;;;;;30.48;40.36;100623.79;102875;1296;63826;-82
2023/08/25 00:05:00;;;;;;;5.60;4.30;;;;;;;30.48;40.34;100629.41;102700;1291;61556;-82
2023/08/25 00:07:25;;;;;;;5.50;4.60;;;;;;;30.48;40.28;100631.38;102804;1291;62604;-82
2023/08/25 00:09:51;;;;;;;5.00;4.20;;;;;;;30.48;40.40;100633.09;102639;1291;61403;-82
2023/08/25 00:12:16;;;;;;;5.70;4.40;;;;;;;30.48;40.43;100638.92;102735;1291;62608;-82
2023/08/25 00:14:42;;;;;;;4.80;4.30;;;;;;;30.48;40.28;100638.88;102727;1296;63791;-82
2023/08/25 00:17:08;;;;;;;6.70;4.60;;;;;;;30.47;40.32;100640.02;102760;1291;63039;-82
2023/08/25 00:19:35;;;;;;;7.10;4.70;;;;;;;30.47;40.29;100642.75;102870;1291;61315;-82
2023/08/25 00:22:01;;;;;;;5.90;4.50;;;;;;;30.47;40.41;100645.48;102787;1291;61510;-82
2023/08/25 00:24:26;;;;;;;5.50;4.70;;;;;;;30.47;40.42;100649.09;102659;1296;61409;-82
2023/08/25 00:26:52;;;;;;;5.50;4.60;;;;;;;30.48;40.49;100647.28;102587;1298;61362;-83
2023/08/25 00:29:20;;;;;;;5.90;4.70;;;;;;;30.47;40.48;100645.85;102667;1291;62131;-83
2023/08/25 00:31:45;;;;;;;4.70;4.10;;;;;;;30.47;40.48;100647.18;102759;1296;61531;-82
2023/08/25 00:34:11;;;;;;;5.60;5.00;;;;;;;30.47;40.47;100653.14;102755;1296;61442;-81
2023/08/25 00:36:37;;;;;;;5.50;4.50;;;;;;;30.47;40.51;100652.80;102901;1296;62057;-81
2023/08/25 00:39:02;;;;;;;5.30;4.60;;;;;;;30.47;40.53;100660.99;102709;1291;65670;-81
2023/08/25 00:41:28;;;;;;;5.60;4.30;;;;;;;30.47;40.40;100662.77;102831;1293;61389;-82
2023/08/25 00:43:53;;;;;;;7.10;4.70;;;;;;;30.47;40.58;100665.70;102852;1289;61352;-82
2023/08/25 00:46:19;;;;;;;5.20;4.40;;;;;;;30.46;40.64;100673.05;102761;1293;61405;-82
2023/08/25 00:48:45;;;;;;;5.60;4.30;;;;;;;30.47;40.56;100681.33;102789;1296;61515;-83
2023/08/25 00:51:10;;;;;;;6.90;4.50;;;;;;;30.47;40.64;100680.23;102885;1290;65690;-82
2023/08/25 00:53:36;;;;;;;5.50;4.60;;;;;;;30.47;40.56;100681.15;102693;1291;62135;-82
2023/08/25 00:56:02;;;;;;;5.10;4.60;;;;;;;30.46;40.61;100681.55;102815;1291;61397;-82
2023/08/25 00:58:27;;;;;;;5.60;4.60;;;;;;;30.46;40.60;100680.33;102748;1291;62611;-82
2023/08/25 01:00:54;;;;;;;4.90;4.40;;;;;;;30.46;40.50;100685.71;102731;1293;61411;-82
2023/08/25 01:03:21;;;;;;;6.50;4.80;;;;;;;30.46;40.73;100684.65;102792;1293;62673;-83
2023/08/25 01:05:48;;;;;;;5.70;4.80;;;;;;;30.46;40.66;100683.45;102796;1291;62261;-83
2023/08/25 01:08:17;;;;;;;6.20;4.60;;;;;;;30.45;40.69;100677.84;102755;1296;61821;-82
2023/08/25 01:11:02;;;;;;;6.30;4.60;;;;;;;30.45;40.63;100675.49;102674;1293;65688;-82
2023/08/25 01:13:50;;;;;;;5.50;4.60;;;;;;;30.45;40.72;100675.48;102768;1291;61181;-82
2023/08/25 01:16:18;;;;;;;5.40;4.30;;;;;;;30.44;40.73;100673.77;102796;1289;61390;-83
2023/08/25 01:18:44;;;;;;;5.80;4.50;;;;;;;30.45;40.72;100679.72;102797;1296;64842;-81
2023/08/25 01:21:10;;;;;;;5.40;4.20;;;;;;;30.45;40.82;100676.09;102733;1296;61955;-81
2023/08/25 01:23:57;;;;;;;6.00;4.50;;;;;;;30.44;40.76;100677.77;102718;1296;61679;-81
2023/08/25 01:26:24;;;;;;;5.60;4.80;;;;;;;30.43;40.82;100675.70;102785;1291;61864;-82
2023/08/25 01:28:53;;;;;;;6.60;4.70;;;;;;;30.43;40.77;100681.82;102697;1296;63873;-81
2023/08/25 01:31:20;;;;;;;5.60;4.50;;;;;;;30.44;40.82;100681.00;102706;1291;65830;-81
2023/08/25 01:33:46;;;;;;;5.70;4.80;;;;;;;30.44;40.80;100677.05;102736;1293;62497;-81
2023/08/25 01:36:23;;;;;;;5.90;5.00;;;;;;;30.44;40.80;100672.84;102636;1297;62584;-81
2023/08/25 01:39:01;;;;;;;6.90;4.50;;;;;;;30.44;40.83;100669.79;102936;1293;63942;-82
2023/08/25 01:41:32;;;;;;;5.50;4.80;;;;;;;30.43;40.68;100669.16;102807;1296;65713;-82
2023/08/25 01:44:00;;;;;;;6.40;4.90;;;;;;;30.43;40.79;100672.98;102808;1293;61778;-82
2023/08/25 01:46:25;;;;;;;5.60;4.30;;;;;;;30.43;40.82;100670.42;102725;1296;61287;-82
2023/08/25 01:48:52;;;;;;;5.60;4.50;;;;;;;30.43;40.99;100665.48;102770;1294;61520;-83
2023/08/25 01:51:18;;;;;;;5.70;4.60;;;;;;;30.43;40.86;100663.00;102714;1296;61460;-82
2023/08/25 01:53:44;;;;;;;5.10;4.40;;;;;;;30.43;40.86;100658.09;102751;1297;61463;-82
2023/08/25 01:56:10;;;;;;;5.80;4.30;;;;;;;30.43;40.91;100663.73;102847;1290;61403;-82
2023/08/25 01:58:35;;;;;;;5.40;4.50;;;;;;;30.43;40.90;100666.46;102776;1297;61437;-82
2023/08/25 02:01:01;;;;;;;6.00;4.70;;;;;;;30.43;40.92;100665.72;102738;1293;62619;-83
2023/08/25 02:03:26;;;;;;;6.20;4.90;;;;;;;30.43;40.95;100663.00;102761;1295;61393;-82
2023/08/25 02:05:52;;;;;;;8.10;4.50;;;;;;;30.43;40.88;100661.33;102679;1296;61412;-83
2023/08/25 02:08:18;;;;;;;5.90;4.60;;;;;;;30.43;41.01;100659.94;102780;1293;61381;-83
2023/08/25 02:10:44;;;;;;;5.50;4.50;;;;;;;30.42;41.00;100659.25;102702;1296;61874;-83
2023/08/25 02:13:10;;;;;;;6.00;4.60;;;;;;;30.42;41.05;100659.96;102753;1290;61336;-83
2023/08/25 02:15:35;;;;;;;6.10;4.60;;;;;;;30.43;41.01;100658.66;102794;1293;61489;-83
2023/08/25 02:18:01;;;;;;;5.40;4.50;;;;;;;30.43;40.98;100656.50;102798;1291;62323;-81
2023/08/25 02:20:26;;;;;;;5.50;4.80;;;;;;;30.42;40.99;100658.51;102749;1293;61296;-82
2023/08/25 02:22:53;;;;;;;5.20;4.30;;;;;;;30.42;41.05;100662.55;102782;1293;61484;-81
2023/08/25 02:25:18;;;;;;;5.70;4.60;;;;;;;30.42;41.12;100666.75;102708;1291;62630;-81
2023/08/25 02:27:44;;;;;;;5.10;4.60;;;;;;;30.42;41.07;100672.90;102769;1293;61366;-81
2023/08/25 02:30:10;;;;;;;5.10;4.60;;;;;;;30.42;41.07;100667.48;102742;1296;61438;-81
2023/08/25 02:32:36;;;;;;;5.60;4.50;;;;;;;30.42;40.99;100670.21;102704;1296;61408;-81
2023/08/25 02:35:01;;;;;;;6.10;4.90;;;;;;;30.41;41.05;100673.52;102767;1296;61828;-81
2023/08/25 02:37:27;;;;;;;5.60;4.50;;;;;;;30.41;41.01;100674.60;102751;1297;62685;-81
2023/08/25 02:39:52;;;;;;;6.30;4.80;;;;;;;30.41;41.13;100678.80;102779;1294;61854;-83
2023/08/25 02:42:18;;;;;;;5.60;4.80;;;;;;;30.41;41.08;100677.57;102793;1293;61372;-81
2023/08/25 02:44:44;;;;;;;5.80;4.60;;;;;;;30.41;41.18;100678.86;102794;1291;62321;-82
2023/08/25 02:47:10;;;;;;;6.10;4.70;;;;;;;30.41;41.12;100675.73;102823;1296;61391;-81
2023/08/25 02:49:38;;;;;;;6.90;5.20;;;;;;;30.41;41.23;100681.58;102808;1291;62334;-81
2023/08/25 02:52:05;;;;;;;5.80;4.80;;;;;;;30.40;41.19;100684.89;102748;1294;61418;-83
2023/08/25 02:54:31;;;;;;;7.80;4.40;;;;;;;30.40;41.11;100684.38;102673;1297;61420;-84
2023/08/25 02:56:57;;;;;;;5.20;4.60;;;;;;;30.40;41.18;100679.30;102756;1295;61401;-83
2023/08/25 02:59:24;;;;;;;7.30;4.60;;;;;;;30.40;41.20;100676.92;102708;1296;61331;-82
2023/08/25 03:01:50;;;;;;;5.90;5.00;;;;;;;30.40;41.23;100679.98;102936;1291;61872;-82
2023/08/25 03:04:15;;;;;;;6.70;4.70;;;;;;;30.40;41.13;100681.45;102705;1291;61396;-83
2023/08/25 03:06:42;;;;;;;6.70;5.00;;;;;;;30.40;41.23;100679.98;102696;1307;61368;-83
2023/08/25 03:09:07;;;;;;;5.20;4.60;;;;;;;30.41;41.23;100680.16;102679;1297;61523;-82
2023/08/25 03:11:34;;;;;;;5.90;4.60;;;;;;;30.40;41.13;100679.17;102817;1293;61659;-83
2023/08/25 03:13:59;;;;;;;5.70;4.40;;;;;;;30.40;41.09;100682.23;102784;1295;74166;-82
2023/08/25 03:16:25;;;;;;;7.00;5.00;;;;;;;30.40;41.28;100690.74;102757;1292;61405;-83
2023/08/25 03:18:50;;;;;;;5.50;4.90;;;;;;;30.40;41.15;100691.33;102783;1296;61438;-82
2023/08/25 03:21:16;;;;;;;5.10;4.60;;;;;;;30.40;41.28;100692.05;102641;1295;61463;-82
2023/08/25 03:23:41;;;;;;;6.10;4.60;;;;;;;30.40;41.07;100691.50;102743;1297;61414;-82
2023/08/25 03:26:07;;;;;;;6.20;4.90;;;;;;;30.40;41.22;100696.41;102714;1293;61885;-82
2023/08/25 03:28:33;;;;;;;5.70;4.40;;;;;;;30.40;41.26;100701.48;102716;1297;61475;-82
2023/08/25 03:30:58;;;;;;;6.60;4.90;;;;;;;30.40;41.19;100710.59;102698;1296;61434;-80
2023/08/25 03:33:24;;;;;;;5.60;4.80;;;;;;;30.39;41.35;100715.16;102744;1297;61828;-82
2023/08/25 03:35:49;;;;;;;10.10;4.90;;;;;;;30.39;41.23;100719.35;102657;1292;61428;-81
2023/08/25 03:38:15;;;;;;;5.70;4.60;;;;;;;30.39;41.29;100721.87;102724;1297;61467;-82
2023/08/25 03:40:40;;;;;;;5.10;4.60;;;;;;;30.39;41.30;100722.61;102753;1297;62290;-82
2023/08/25 03:43:06;;;;;;;7.40;4.50;;;;;;;30.39;41.28;100724.45;102720;1304;63628;-83
2023/08/25 03:45:32;;;;;;;6.60;4.90;;;;;;;30.39;41.28;100734.46;102630;1307;62686;-83
2023/08/25 03:47:57;;;;;;;5.80;4.80;;;;;;;30.39;41.41;100735.01;102713;1291;61421;-82
2023/08/25 03:50:24;;;;;;;7.50;4.70;;;;;;;30.39;41.35;100739.15;102867;1295;61430;-82
2023/08/25 03:52:52;;;;;;;5.70;4.40;;;;;;;30.38;41.39;100737.04;102782;1303;61392;-82
2023/08/25 03:55:18;;;;;;;5.90;4.80;;;;;;;30.39;41.35;100737.02;102805;1293;61340;-83
2023/08/25 03:57:44;;;;;;;6.30;4.70;;;;;;;30.39;41.39;100736.46;102648;1299;62262;-82
2023/08/25 04:00:10;;;;;;;5.20;4.40;;;;;;;30.39;41.42;100742.92;102617;1297;62049;-82
2023/08/25 04:02:39;;;;;;;5.70;4.80;;;;;;;30.39;41.37;100749.34;102707;1297;61467;-82
2023/08/25 04:05:07;;;;;;;6.10;4.90;;;;;;;30.39;41.49;100757.30;102746;1292;74210;-82
2023/08/25 04:07:32;;;;;;;5.70;4.70;;;;;;;30.39;41.43;100763.69;102865;1292;62504;-82
2023/08/25 04:09:58;;;;;;;6.20;5.10;;;;;;;30.40;41.40;100768.50;102738;1294;61412;-82
2023/08/25 04:12:23;;;;;;;6.60;5.30;;;;;;;30.39;41.25;100767.40;102821;1296;61453;-82
2023/08/25 04:14:49;;;;;;;7.60;5.10;;;;;;;30.39;41.45;100769.79;102670;1291;62015;-83
2023/08/25 04:17:14;;;;;;;7.30;5.40;;;;;;;30.39;41.38;100774.55;102814;1293;61360;-82
2023/08/25 04:19:40;;;;;;;7.50;5.00;;;;;;;30.39;41.29;100775.52;102784;1290;61306;-81
2023/08/25 04:22:06;;;;;;;6.10;4.80;;;;;;;30.38;41.32;100778.13;102876;1294;62188;-82
2023/08/25 04:24:31;;;;;;;7.50;4.80;;;;;;;30.38;41.22;100783.38;102819;1295;61420;-82
2023/08/25 04:26:57;;;;;;;8.00;5.20;;;;;;;30.38;41.16;100788.27;102764;1297;61490;-82
2023/08/25 04:29:22;;;;;;;7.10;4.70;;;;;;;30.38;41.25;100793.39;102706;1292;62101;-82
2023/08/25 04:31:48;;;;;;;8.10;5.00;;;;;;;30.38;41.17;100800.13;102757;1291;61408;-82
2023/08/25 04:34:14;;;;;;;5.90;5.00;;;;;;;30.37;41.02;100804.34;102741;1294;61271;-82
2023/08/25 04:36:39;;;;;;;7.30;4.80;;;;;;;30.38;41.18;100803.44;102692;1293;61467;-82
2023/08/25 04:39:06;;;;;;;6.50;5.20;;;;;;;30.37;41.16;100800.61;102863;1292;61623;-81
2023/08/25 04:41:32;;;;;;;8.20;6.00;;;;;;;30.36;41.11;100799.00;102713;1296;61441;-81
2023/08/25 04:43:57;;;;;;;8.10;6.00;;;;;;;30.37;41.01;100799.85;102773;1292;61470;-81
2023/08/25 04:46:23;;;;;;;10.20;5.90;;;;;;;30.36;40.98;100792.30;102740;1292;61390;-82
2023/08/25 04:48:48;;;;;;;9.30;6.20;;;;;;;30.35;40.94;100788.96;102699;1291;63800;-82
2023/08/25 04:51:14;;;;;;;8.60;5.80;;;;;;;30.35;41.06;100789.58;102694;1296;62628;-82
2023/08/25 04:53:40;;;;;;;9.10;5.70;;;;;;;30.35;40.93;100791.92;102771;1291;61364;-82
2023/08/25 04:56:06;;;;;;;7.90;5.60;;;;;;;30.34;40.94;100794.69;102770;1291;61610;-81
2023/08/25 04:58:31;;;;;;;7.70;5.90;;;;;;;30.34;40.95;100799.96;102821;1291;61415;-81
2023/08/25 05:00:57;;;;;;;7.80;5.40;;;;;;;30.34;41.06;100805.81;102721;1296;62070;-81
2023/08/25 05:03:22;;;;;;;9.60;5.90;;;;;;;30.34;40.95;100805.98;102771;1293;72611;-81
2023/08/25 05:05:48;;;;;;;9.50;6.70;;;;;;;30.34;40.87;100806.18;102776;1292;61919;-82
2023/08/25 05:08:13;;;;;;;10.60;6.20;;;;;;;30.33;40.96;100812.11;102772;1296;61870;-81
2023/08/25 05:10:39;;;;;;;9.90;5.80;;;;;;;30.33;40.96;100820.08;102757;1297;61339;-82
2023/08/25 05:13:04;;;;;;;11.00;6.40;;;;;;;30.33;40.90;100822.66;103065;1293;61391;-82
2023/08/25 05:15:30;;;;;;;10.60;6.10;;;;;;;30.33;40.91;100827.35;102767;1291;66897;-81
2023/08/25 05:17:55;;;;;;;14.10;6.30;;;;;;;30.33;41.03;100834.65;102846;1293;62009;-81
2023/08/25 05:20:21;;;;;;;11.70;6.40;;;;;;;30.34;40.98;100835.45;102687;1296;61497;-81
2023/08/25 05:22:47;;;;;;;15.00;6.50;;;;;;;30.33;41.01;100838.41;102881;1291;61534;-81
2023/08/25 05:25:14;;;;;;;8.30;6.50;;;;;;;30.33;40.97;100836.03;102822;1293;61276;-81
2023/08/25 05:27:40;;;;;;;10.40;6.40;;;;;;;30.33;40.98;100838.00;102848;1291;61400;-81
2023/08/25 05:30:06;;;;;;;9.90;6.10;;;;;;;30.34;40.97;100840.88;102838;1293;61414;-82
2023/08/25 05:32:32;;;;;;;10.60;6.00;;;;;;;30.34;40.96;100839.64;102813;1293;61290;-82
2023/08/25 05:34:57;;;;;;;13.50;6.60;;;;;;;30.34;40.99;100836.88;102769;1293;61432;-82
2023/08/25 05:37:23;;;;;;;12.70;6.50;;;;;;;30.34;40.92;100839.92;102872;1293;61424;-80
2023/08/25 05:39:49;;;;;;;9.20;6.20;;;;;;;30.34;40.94;100829.95;102957;1292;61425;-81
2023/08/25 05:42:15;;;;;;;9.90;6.20;;;;;;;30.35;40.93;100832.27;102977;1297;61361;-81
2023/08/25 05:44:42;;;;;;;10.30;6.50;;;;;;;30.35;40.95;100830.02;102977;1292;62541;-83
2023/08/25 05:47:08;;;;;;;9.50;6.00;;;;;;;30.35;40.91;100829.46;103057;1296;61827;-83
2023/08/25 05:49:33;;;;;;;8.60;6.40;;;;;;;30.35;41.05;100826.70;102925;1297;61422;-83
2023/08/25 05:51:59;;;;;;;10.50;6.00;;;;;;;30.36;40.97;100830.08;102922;1291;61899;-83
2023/08/25 05:54:24;;;;;;;10.00;6.00;;;;;;;30.36;40.93;100828.95;103091;1293;61399;-83
2023/08/25 05:56:50;;;;;;;9.40;6.40;;;;;;;30.36;40.87;100826.23;102852;1291;61392;-82
2023/08/25 05:59:15;;;;;;;9.60;6.30;;;;;;;30.36;40.89;100828.23;102860;1293;62352;-82
2023/08/25 06:01:41;;;;;;;9.70;6.20;;;;;;;30.36;40.90;100822.66;102918;1293;460944;-81
2023/08/25 06:04:07;;;;;;;11.70;6.30;;;;;;;30.36;40.73;100821.55;102994;1290;61359;-81
2023/08/25 06:06:33;;;;;;;10.50;6.50;;;;;;;30.36;40.77;100816.89;102700;1296;61394;-81
2023/08/25 06:08:59;;;;;;;11.00;6.70;;;;;;;30.35;40.90;100812.76;102709;1289;62604;-81
2023/08/25 06:11:24;;;;;;;9.70;6.50;;;;;;;30.35;40.80;100811.29;102788;1293;61408;-83
2023/08/25 06:13:51;;;;;;;10.00;6.20;;;;;;;30.36;40.87;100811.80;102796;1293;61407;-81
2023/08/25 06:16:17;;;;;;;8.20;6.10;;;;;;;30.36;40.81;100809.41;103060;1291;61427;-81
2023/08/25 06:18:43;;;;;;;11.50;6.40;;;;;;;30.37;40.68;100808.95;103243;1293;61526;-82
2023/08/25 06:21:10;;;;;;;9.90;6.10;;;;;;;30.37;40.68;100810.04;102863;1291;63112;-82
2023/08/25 06:23:35;;;;;;;9.80;6.00;;;;;;;30.37;40.66;100805.71;103019;1291;61345;-82
2023/08/25 06:26:01;;;;;;;9.60;6.30;;;;;;;30.37;40.66;100811.44;102935;1297;61588;-82
2023/08/25 06:28:26;;;;;;;10.60;6.60;;;;;;;30.37;40.73;100809.25;103039;1291;61292;-82
2023/08/25 06:30:52;;;;;;;10.90;6.40;;;;;;;30.37;40.72;100810.85;102866;1297;62957;-81
2023/08/25 06:33:17;;;;;;;9.80;5.90;;;;;;;30.39;40.68;100815.41;103123;1294;61388;-81
2023/08/25 06:35:43;;;;;;;8.80;6.10;;;;;;;30.40;40.67;100821.26;103231;1291;62061;-81
2023/08/25 06:38:09;;;;;;;7.90;5.90;;;;;;;30.41;40.63;100824.62;103124;1291;61359;-81
2023/08/25 06:40:34;;;;;;;10.10;6.20;;;;;;;30.42;40.52;100825.98;103099;1290;61411;-81
2023/08/25 06:43:01;;;;;;;9.20;6.20;;;;;;;30.33;40.27;100825.73;102844;1296;61421;-81
2023/08/25 06:45:27;;;;;;;9.40;6.20;;;;;;;30.22;40.16;100826.95;103026;1293;62665;-80
2023/08/25 06:47:54;;;;;;;13.40;6.30;;;;;;;30.20;40.26;100833.15;103076;1293;61354;-80
2023/08/25 06:50:21;;;;;;;9.00;5.60;;;;;;;30.11;40.20;100832.33;103001;1292;62631;-81
2023/08/25 06:52:47;;;;;;;9.10;6.10;;;;;;;30.01;40.17;100839.15;102926;1295;64792;-81
2023/08/25 06:55:15;;;;;;;10.00;5.90;;;;;;;29.97;40.31;100841.40;103140;1291;61391;-81
2023/08/25 06:57:40;;;;;;;14.40;5.80;;;;;;;29.98;40.39;100839.70;102884;1291;61170;-82
2023/08/25 07:00:07;;;;;;;8.30;5.80;;;;;;;30.00;40.28;100832.96;103078;1296;61463;-82
2023/08/25 07:02:33;;;;;;;8.40;6.40;;;;;;;30.04;40.30;100823.27;102900;1291;61369;-81
2023/08/25 07:04:59;;;;;;;10.00;5.90;;;;;;;30.09;40.36;100829.80;102907;1290;62935;-82
2023/08/25 07:07:25;;;;;;;9.10;5.80;;;;;;;30.14;40.41;100827.83;102980;1294;61981;-81
2023/08/25 07:09:51;;;;;;;9.90;6.10;;;;;;;30.18;40.48;100832.01;102896;1291;62301;-81
2023/08/25 07:12:17;;;;;;;7.00;5.70;;;;;;;30.22;40.37;100834.20;102893;1291;61342;-81
2023/08/25 07:14:43;;;;;;;8.00;5.80;;;;;;;30.25;40.37;100838.55;103121;1294;62478;-81
2023/08/25 07:17:09;;;;;;;11.10;5.80;;;;;;;30.28;40.40;100840.80;103340;1291;61632;-82
2023/08/25 07:19:34;;;;;;;9.60;5.50;;;;;;;30.31;40.20;100839.13;103138;1290;61369;-82
2023/08/25 07:22:01;;;;;;;9.60;6.10;;;;;;;30.34;40.25;100839.61;103195;1289;61946;-81
2023/08/25 07:24:26;;;;;;;12.30;5.80;;;;;;;30.35;40.22;100833.11;102972;1293;61456;-81
2023/08/25 07:26:52;;;;;;;11.10;6.30;;;;;;;30.37;40.13;100834.14;102822;1291;62622;-82
2023/08/25 07:29:17;;;;;;;7.30;5.70;;;;;;;30.39;40.04;100834.84;102759;1291;61361;-81
2023/08/25 07:31:43;;;;;;;11.70;5.80;;;;;;;30.41;39.98;100834.23;102795;1291;61382;-82
2023/08/25 07:34:09;;;;;;;7.60;5.30;;;;;;;30.42;39.88;100834.68;103098;1291;61381;-82
2023/08/25 07:36:34;;;;;;;8.50;6.20;;;;;;;30.43;39.75;100838.56;102980;1294;61360;-82
2023/08/25 07:39:00;;;;;;;10.60;5.80;;;;;;;30.45;39.81;100836.60;102764;1295;61394;-82
2023/08/25 07:41:26;;;;;;;8.10;5.70;;;;;;;30.45;39.83;100838.73;102864;1291;62351;-82
2023/08/25 07:43:52;;;;;;;10.70;5.80;;;;;;;30.45;39.69;100835.05;102841;1296;62523;-82
2023/08/25 07:46:17;;;;;;;8.30;5.50;;;;;;;30.46;39.55;100830.23;102923;1291;61354;-81
2023/08/25 07:48:45;;;;;;;8.30;5.90;;;;;;;30.47;39.51;100830.33;102888;1289;61412;-82
2023/08/25 07:51:12;;;;;;;9.00;5.60;;;;;;;30.48;39.40;100827.38;103012;1291;65577;-83
2023/08/25 07:53:38;;;;;;;10.30;5.30;;;;;;;30.48;39.44;100824.05;102853;1296;61414;-81
2023/08/25 07:56:04;;;;;;;7.60;5.50;;;;;;;30.49;39.43;100821.39;102992;1291;61865;-82
2023/08/25 07:58:30;;;;;;;10.80;6.00;;;;;;;30.50;39.34;100818.83;102869;1296;61395;-82
2023/08/25 08:00:55;;;;;;;9.70;5.50;;;;;;;30.50;39.33;100817.34;102896;1291;61392;-82
2023/08/25 08:03:22;;;;;;;8.60;5.60;;;;;;;30.50;39.23;100817.48;103067;1291;61753;-82
2023/08/25 08:05:49;;;;;;;10.10;5.90;;;;;;;30.51;39.12;100813.39;103013;1293;61328;-82
2023/08/25 08:08:14;;;;;;;7.90;5.70;;;;;;;30.51;39.01;100809.19;103227;1291;61404;-81
2023/08/25 08:10:40;;;;;;;9.50;5.80;;;;;;;30.52;39.09;100805.08;103012;1295;61437;-82
2023/08/25 08:13:05;;;;;;;8.20;5.50;;;;;;;30.53;38.97;100809.39;103065;1291;62102;-82
2023/08/25 08:15:31;;;;;;;9.30;5.90;;;;;;;30.53;39.00;100806.06;102835;1289;61846;-82
2023/08/25 08:17:58;;;;;;;8.20;5.80;;;;;;;30.53;39.05;100803.16;103220;1290;61508;-82
2023/08/25 08:20:24;;;;;;;12.10;5.40;;;;;;;30.53;38.94;100800.61;102891;1296;62599;-82
2023/08/25 08:22:50;;;;;;;7.20;5.50;;;;;;;30.53;38.80;100797.68;103069;1290;62641;-82
2023/08/25 08:25:16;;;;;;;8.30;5.60;;;;;;;30.53;38.84;100797.85;103152;1291;61418;-82
2023/08/25 08:27:43;;;;;;;8.30;5.40;;;;;;;30.54;38.73;100798.20;103200;1290;61415;-82
2023/08/25 08:30:09;;;;;;;7.20;5.40;;;;;;;30.54;38.71;100799.08;103013;1296;61396;-82
2023/08/25 08:32:35;;;;;;;7.60;5.70;;;;;;;30.55;38.72;100793.35;102861;1291;61385;-82
2023/08/25 08:35:05;;;;;;;9.00;5.70;;;;;;;30.54;38.68;100792.58;102937;1293;62586;-82
2023/08/25 08:37:30;;;;;;;8.70;5.60;;;;;;;30.54;38.63;100791.21;103376;1290;61160;-81
2023/08/25 08:39:56;;;;;;;7.20;5.50;;;;;;;30.55;38.51;100794.58;102964;1291;61496;-82
2023/08/25 08:42:22;;;;;;;7.60;5.40;;;;;;;30.55;38.49;100796.23;103115;1291;61411;-82
2023/08/25 08:44:49;;;;;;;7.60;5.40;;;;;;;30.55;38.51;100797.13;103339;1294;61905;-82
2023/08/25 08:47:15;;;;;;;7.60;5.80;;;;;;;30.56;38.36;100799.00;103212;1291;61417;-82
2023/08/25 08:49:41;;;;;;;8.50;5.90;;;;;;;30.56;38.42;100794.27;102996;1295;61397;-83
2023/08/25 08:52:07;;;;;;;6.80;5.50;;;;;;;30.56;38.41;100791.39;103390;1296;61399;-82
2023/08/25 08:54:33;;;;;;;7.90;5.40;;;;;;;30.58;38.38;100788.10;103770;1289;61387;-83
2023/08/25 08:56:59;;;;;;;9.30;5.70;;;;;;;30.58;38.32;100786.27;103190;1296;61868;-82
2023/08/25 08:59:25;;;;;;;7.20;5.50;;;;;;;30.58;38.24;100789.50;103576;1296;61348;-83
2023/08/25 09:01:50;;;;;;;6.40;5.30;;;;;;;30.59;38.26;100785.45;103313;1293;61682;-82
2023/08/25 09:04:21;;;;;;;8.30;5.50;;;;;;;30.60;38.22;100785.54;102933;1299;61505;-82
2023/08/25 09:06:49;;;;;;;7.70;5.80;;;;;;;30.61;38.21;100785.27;103115;1293;61768;-83
2023/08/25 09:09:14;;;;;;;8.60;5.60;;;;;;;30.62;38.12;100783.71;102976;1294;61525;-82
2023/08/25 09:11:40;;;;;;;11.20;5.50;;;;;;;30.61;38.12;100777.58;102915;1294;61384;-82
2023/08/25 09:14:07;;;;;;;7.80;5.70;;;;;;;30.62;38.10;100777.55;103224;1292;61616;-83
2023/08/25 09:16:35;;;;;;;8.80;5.30;;;;;;;30.62;38.04;100770.98;103253;1292;61704;-82
2023/08/25 09:19:03;;;;;;;9.70;5.80;;;;;;;30.62;38.09;100766.04;102976;1292;61528;-82
2023/08/25 09:21:29;;;;;;;;;;;;;;;30.63;38.00;100765.24;102849;1293;64567;-83
2023/08/25 09:23:56;;;;;;;8.10;5.40;;;;;;;30.61;37.99;100764.70;102664;1294;61616;-82
2023/08/25 09:26:22;;;;;;;9.60;5.60;;;;;;;30.62;37.94;100760.45;102833;1293;61496;-81
2023/08/25 09:28:47;;;;;;;8.30;5.00;;;;;;;30.63;37.99;100765.05;103321;1293;61432;-82
2023/08/25 09:31:25;;;;;;;8.90;5.20;;;;;;;30.63;37.95;100762.16;102952;1293;61552;-83
2023/08/25 09:33:52;;;;;;;13.10;6.20;;;;;;;30.63;38.08;100758.16;103409;1291;66057;-83
2023/08/25 09:36:18;;;;;;;8.90;6.30;;;;;;;30.62;37.93;100751.73;103332;1291;61507;-82
2023/08/25 09:38:45;;;;;;;8.70;5.50;;;;;;;30.62;37.93;100746.33;103391;1291;61319;-83
2023/08/25 09:41:20;;;;;;;8.30;5.80;;;;;;;30.62;37.90;100746.28;103308;1292;63850;-82
2023/08/25 09:43:46;;;;;;;6.80;5.30;;;;;;;30.62;37.96;100745.34;102872;1293;65923;-82
2023/08/25 09:46:11;;;;;;;8.30;5.60;;;;;;;30.62;37.87;100741.31;103160;1289;61389;-82
2023/08/25 09:48:37;;;;;;;7.50;5.80;;;;;;;30.63;37.89;100737.43;103088;1290;61262;-82
2023/08/25 09:51:03;;;;;;;7.30;5.20;;;;;;;30.63;37.93;100737.45;103140;1290;61402;-84
2023/08/25 09:53:31;;;;;;;9.50;5.60;;;;;;;30.63;37.98;100738.48;103065;1297;61397;-81
2023/08/25 09:56:01;;;;;;;8.90;5.50;;;;;;;30.63;37.85;100739.20;103358;1291;61526;-80
2023/08/25 09:58:27;;;;;;;9.60;5.50;;;;;;;30.63;37.94;100738.81;103067;1289;61373;-80
2023/08/25 10:00:52;;;;;;;10.10;5.40;;;;;;;30.64;38.06;100734.05;102903;1291;61418;-82
2023/08/25 10:03:18;;;;;;;8.40;5.70;;;;;;;30.64;37.94;100735.06;102897;1293;61349;-82
2023/08/25 10:05:43;;;;;;;7.00;5.60;;;;;;;30.64;37.95;100735.24;103125;1291;62249;-82
2023/08/25 10:08:09;;;;;;;7.60;5.60;;;;;;;30.65;37.99;100730.30;103027;1290;61898;-82
2023/08/25 10:10:36;;;;;;;7.30;5.40;;;;;;;30.65;38.06;100722.66;103106;1291;61318;-82
2023/08/25 10:13:03;;;;;;;7.40;5.20;;;;;;;30.65;38.05;100714.88;102964;1290;63989;-84
2023/08/25 10:15:30;;;;;;;6.90;5.30;;;;;;;30.65;38.04;100711.27;102841;1291;66852;-83
2023/08/25 10:17:58;;;;;;;6.80;5.40;;;;;;;30.64;38.18;100710.02;102915;1291;63145;-80
2023/08/25 10:20:24;;;;;;;6.70;5.10;;;;;;;30.65;38.08;100707.24;102949;1296;61373;-80
2023/08/25 10:22:49;;;;;;;7.80;5.50;;;;;;;30.65;38.09;100703.98;103191;1289;62612;-82
2023/08/25 10:25:15;;;;;;;7.30;5.60;;;;;;;30.65;38.27;100706.86;103243;1293;61401;-82
2023/08/25 10:27:41;;;;;;;7.30;5.00;;;;;;;30.64;38.15;100699.87;102957;1296;61401;-81
2023/08/25 10:30:07;;;;;;;7.80;5.70;;;;;;;30.65;38.14;100698.70;102889;1289;61447;-81
2023/08/25 10:33:09;;;;;;;8.10;5.20;;;;;;;30.65;38.23;100703.27;102745;1291;61431;-81
2023/08/25 10:35:44;;;;;;;8.20;5.70;;;;;;;30.64;38.17;100703.13;102217;1297;66873;-80
2023/08/25 10:38:39;;;;;;;6.60;5.50;;;;;;;30.64;38.24;100702.09;102356;1297;61511;-81
2023/08/25 10:41:15;;;;;;;6.80;5.80;;;;;;;30.64;38.34;100701.20;102513;1304;61410;-82
2023/08/25 10:43:50;;;;;;;6.80;5.40;;;;;;;30.64;38.35;100695.75;102261;1300;63821;-80
2023/08/25 10:46:17;;;;;;;9.50;5.90;;;;;;;30.64;38.40;100695.50;102264;1300;66775;-81
2023/08/25 10:48:42;;;;;;;8.90;5.30;;;;;;;30.64;38.42;100694.04;102362;1300;61403;-81
2023/08/25 10:51:09;;;;;;;7.20;5.50;;;;;;;30.65;38.47;100690.35;102226;1300;61530;-80
2023/08/25 10:53:38;;;;;;;7.50;5.70;;;;;;;30.65;38.47;100691.11;102154;1299;61971;-81
2023/08/25 10:56:23;;;;;;;9.70;5.80;;;;;;;30.64;38.35;100686.41;102244;1299;65813;-81
2023/08/25 10:59:11;;;;;;;8.00;5.80;;;;;;;30.65;38.39;100684.74;102204;1298;61466;-81
2023/08/25 11:01:38;;;;;;;6.60;5.20;;;;;;;30.64;38.51;100683.55;102171;1300;61324;-82
2023/08/25 11:04:13;;;;;;;8.30;5.40;;;;;;;30.64;38.42;100683.20;102154;1299;61483;-82
2023/08/25 11:06:48;;;;;;;7.30;5.20;;;;;;;30.64;38.39;100682.48;102269;1304;65860;-82
2023/08/25 11:09:20;;;;;;;6.90;5.20;;;;;;;30.64;38.50;100686.30;102259;1300;61438;-82
2023/08/25 11:11:47;;;;;;;8.50;5.60;;;;;;;30.64;38.60;100682.12;102665;1296;61403;-83
2023/08/25 11:14:15;;;;;;;6.30;5.40;;;;;;;30.64;38.57;100679.58;102739;1291;64798;-81